createdAt,value
2018-05-13T00:00:10.003Z,950.24
2018-05-13T00:01:10.003Z,950.24
2018-05-13T00:02:10.013Z,950.26
2018-05-13T00:03:10.027Z,950.31
2018-05-13T00:04:10.049Z,950.31
2018-05-13T00:05:10.130Z,950.36
2018-05-13T00:06:10.067Z,950.39
2018-05-13T00:07:10.078Z,950.38
2018-05-13T00:08:10.088Z,950.41
2018-05-13T00:09:10.099Z,950.40
2018-05-13T00:10:10.111Z,950.36
2018-05-13T00:11:10.125Z,950.41
2018-05-13T00:12:10.142Z,950.38
2018-05-13T00:13:10.149Z,950.39
2018-05-13T00:14:10.162Z,950.36
2018-05-13T00:15:10.173Z,950.34
2018-05-13T00:16:10.181Z,950.32
2018-05-13T00:17:10.193Z,950.33
2018-05-13T00:18:10.213Z,950.32
2018-05-13T00:19:10.218Z,950.29
2018-05-13T00:20:10.231Z,950.29
2018-05-13T00:21:10.249Z,950.30
2018-05-13T00:22:10.257Z,950.28
2018-05-13T00:23:10.267Z,950.28
2018-05-13T00:24:10.288Z,950.28
2018-05-13T00:25:10.290Z,950.27
2018-05-13T00:26:10.304Z,950.24
2018-05-13T00:27:10.318Z,950.23
2018-05-13T00:28:10.329Z,950.22
2018-05-13T00:29:10.339Z,950.19
2018-05-13T00:30:10.359Z,950.18
2018-05-13T00:31:10.360Z,950.16
2018-05-13T00:32:10.381Z,950.13
2018-05-13T00:33:10.388Z,950.14
2018-05-13T00:34:10.397Z,950.12
2018-05-13T00:35:10.412Z,950.13
2018-05-13T00:36:10.420Z,950.14
2018-05-13T00:37:10.430Z,950.13
2018-05-13T00:38:10.441Z,950.14
2018-05-13T00:39:10.452Z,950.14
2018-05-13T00:40:10.476Z,950.16
2018-05-13T00:41:10.476Z,950.16
2018-05-13T00:42:10.494Z,950.15
2018-05-13T00:43:10.502Z,950.12
2018-05-13T00:44:10.511Z,950.14
2018-05-13T00:45:10.523Z,950.19
2018-05-13T00:46:10.532Z,950.17
2018-05-13T00:47:10.548Z,950.21
2018-05-13T00:48:10.568Z,950.22
2018-05-13T00:49:10.570Z,950.20
2018-05-13T00:50:10.580Z,950.18
2018-05-13T00:51:10.594Z,950.19
2018-05-13T00:52:10.608Z,950.17
2018-05-13T00:53:10.617Z,950.20
2018-05-13T00:54:10.635Z,950.16
2018-05-13T00:55:10.640Z,950.14
2018-05-13T00:56:10.651Z,950.14
2018-05-13T00:57:10.661Z,950.10
2018-05-13T00:58:10.676Z,950.07
2018-05-13T00:59:10.692Z,950.06
2018-05-13T01:00:10.708Z,950.01
2018-05-13T01:01:10.719Z,949.97
2018-05-13T01:02:10.725Z,949.97
2018-05-13T01:03:10.736Z,949.98
2018-05-13T01:04:10.750Z,949.94
2018-05-13T01:05:10.761Z,949.97
2018-05-13T01:06:10.781Z,949.92
2018-05-13T01:07:10.781Z,949.90
2018-05-13T01:08:10.796Z,949.89
2018-05-13T01:09:10.808Z,949.85
2018-05-13T01:10:10.816Z,949.87
2018-05-13T01:11:10.829Z,949.90
2018-05-13T01:12:10.840Z,949.88
2018-05-13T01:13:11.265Z,949.93
2018-05-13T01:14:10.866Z,949.99
2018-05-13T01:15:10.877Z,949.97
2018-05-13T01:16:10.888Z,950.02
2018-05-13T01:17:10.899Z,949.97
2018-05-13T01:18:10.909Z,949.99
2018-05-13T01:19:10.928Z,950.00
2018-05-13T01:20:10.930Z,950.00
2018-05-13T01:21:10.944Z,950.00
2018-05-13T01:22:10.951Z,949.96
2018-05-13T01:23:10.964Z,950.01
2018-05-13T01:24:10.980Z,950.01
2018-05-13T01:25:11.005Z,949.98
2018-05-13T01:26:11.003Z,949.97
2018-05-13T01:27:11.016Z,949.97
2018-05-13T01:28:11.022Z,949.99
2018-05-13T01:29:11.041Z,950.01
2018-05-13T01:30:11.047Z,950.02
2018-05-13T01:31:11.061Z,949.93
2018-05-13T01:32:11.075Z,949.95
2018-05-13T01:33:11.080Z,949.99
2018-05-13T01:34:11.094Z,949.96
2018-05-13T01:35:11.104Z,950.02
2018-05-13T01:36:11.118Z,949.97
2018-05-13T01:37:11.137Z,950.01
2018-05-13T01:38:11.140Z,950.02
2018-05-13T01:39:11.157Z,950.06
2018-05-13T01:40:11.163Z,950.08
2018-05-13T01:41:11.228Z,950.05
2018-05-13T01:42:11.187Z,950.03
2018-05-13T01:43:11.198Z,950.02
2018-05-13T01:44:11.215Z,950.03
2018-05-13T01:45:11.223Z,950.04
2018-05-13T01:46:11.233Z,950.05
2018-05-13T01:47:11.240Z,950.07
2018-05-13T01:48:11.258Z,950.04
2018-05-13T01:49:11.271Z,950.06
2018-05-13T01:50:11.281Z,950.07
2018-05-13T01:51:11.297Z,950.09
2018-05-13T01:52:11.301Z,950.07
2018-05-13T01:53:11.316Z,950.05
2018-05-13T01:54:11.324Z,950.01
2018-05-13T01:55:11.333Z,950.03
2018-05-13T01:56:11.348Z,949.96
2018-05-13T01:57:11.366Z,949.99
2018-05-13T01:58:11.369Z,949.97
2018-05-13T01:59:11.381Z,949.99
2018-05-13T02:00:11.394Z,949.98
2018-05-13T02:01:11.401Z,949.98
2018-05-13T02:02:11.413Z,950.03
2018-05-13T02:03:11.425Z,949.99
2018-05-13T02:04:11.439Z,949.99
2018-05-13T02:05:11.447Z,949.99
2018-05-13T02:06:11.455Z,949.99
2018-05-13T02:07:11.471Z,949.99
2018-05-13T02:08:11.486Z,950.00
2018-05-13T02:09:11.500Z,950.02
2018-05-13T02:10:11.504Z,950.01
2018-05-13T02:11:11.526Z,950.03
2018-05-13T02:12:11.531Z,950.03
2018-05-13T02:13:11.539Z,950.04
2018-05-13T02:14:11.547Z,950.08
2018-05-13T02:15:11.569Z,950.08
2018-05-13T02:16:11.573Z,950.09
2018-05-13T02:17:11.580Z,950.04
2018-05-13T02:18:11.590Z,950.04
2018-05-13T02:19:11.608Z,950.03
2018-05-13T02:20:11.615Z,950.06
2018-05-13T02:21:11.631Z,950.01
2018-05-13T02:22:11.637Z,950.01
2018-05-13T02:23:12.388Z,950.02
2018-05-13T02:24:11.658Z,950.02
2018-05-13T02:25:11.669Z,950.01
2018-05-13T02:26:11.676Z,949.97
2018-05-13T02:27:11.706Z,949.96
2018-05-13T02:28:11.701Z,949.94
2018-05-13T02:29:11.714Z,949.96
2018-05-13T02:30:11.723Z,949.93
2018-05-13T02:31:11.738Z,949.93
2018-05-13T02:32:11.753Z,949.91
2018-05-13T02:33:11.757Z,949.92
2018-05-13T02:34:11.798Z,949.94
2018-05-13T02:35:11.781Z,949.98
2018-05-13T02:36:11.794Z,949.96
2018-05-13T02:37:11.804Z,950.00
2018-05-13T02:38:11.813Z,949.94
2018-05-13T02:39:11.828Z,950.00
2018-05-13T02:40:11.838Z,950.00
2018-05-13T02:41:11.849Z,950.02
2018-05-13T02:42:11.855Z,950.04
2018-05-13T02:43:11.867Z,950.10
2018-05-13T02:44:11.894Z,950.08
2018-05-13T02:45:11.888Z,950.07
2018-05-13T02:46:11.900Z,950.12
2018-05-13T02:47:11.958Z,950.14
2018-05-13T02:48:11.919Z,950.14
2018-05-13T02:49:11.936Z,950.12
2018-05-13T02:50:11.946Z,950.15
2018-05-13T02:51:11.956Z,950.15
2018-05-13T02:52:11.966Z,950.15
2018-05-13T02:53:11.981Z,950.17
2018-05-13T02:54:11.993Z,950.14
2018-05-13T02:55:11.998Z,950.15
2018-05-13T02:56:12.014Z,950.15
2018-05-13T02:57:12.022Z,950.15
2018-05-13T02:58:12.030Z,950.16
2018-05-13T02:59:12.053Z,950.15
2018-05-13T03:00:12.066Z,950.14
2018-05-13T03:01:12.071Z,950.15
2018-05-13T03:02:12.078Z,950.15
2018-05-13T03:03:12.094Z,950.13
2018-05-13T03:04:12.102Z,950.18
2018-05-13T03:05:12.117Z,950.16
2018-05-13T03:06:12.128Z,950.18
2018-05-13T03:07:12.132Z,950.18
2018-05-13T03:08:12.145Z,950.16
2018-05-13T03:09:12.156Z,950.18
2018-05-13T03:10:12.165Z,950.16
2018-05-13T03:11:12.179Z,950.12
2018-05-13T03:12:12.195Z,950.13
2018-05-13T03:13:12.244Z,950.11
2018-05-13T03:14:12.206Z,950.11
2018-05-13T03:15:12.218Z,950.10
2018-05-13T03:16:12.224Z,950.10
2018-05-13T03:17:12.238Z,950.12
2018-05-13T03:18:12.249Z,950.09
2018-05-13T03:19:12.259Z,950.13
2018-05-13T03:20:12.268Z,950.11
2018-05-13T03:21:12.281Z,950.11
2018-05-13T03:22:12.292Z,950.13
2018-05-13T03:23:12.305Z,950.14
2018-05-13T03:24:12.320Z,950.14
2018-05-13T03:25:12.326Z,950.13
2018-05-13T03:26:12.338Z,950.14
2018-05-13T03:27:12.363Z,950.15
2018-05-13T03:28:12.357Z,950.16
2018-05-13T03:29:12.370Z,950.15
2018-05-13T03:30:12.387Z,950.13
2018-05-13T03:31:12.397Z,950.17
2018-05-13T03:32:12.403Z,950.20
2018-05-13T03:33:12.413Z,950.18
2018-05-13T03:34:12.799Z,950.22
2018-05-13T03:35:12.433Z,950.23
2018-05-13T03:36:12.448Z,950.22
2018-05-13T03:37:12.454Z,950.23
2018-05-13T03:38:12.466Z,950.26
2018-05-13T03:39:12.480Z,950.22
2018-05-13T03:40:12.483Z,950.25
2018-05-13T03:41:12.499Z,950.25
2018-05-13T03:42:12.511Z,950.21
2018-05-13T03:43:12.518Z,950.26
2018-05-13T03:44:12.526Z,950.24
2018-05-13T03:45:12.542Z,950.24
2018-05-13T03:46:12.552Z,950.22
2018-05-13T03:47:12.561Z,950.24
2018-05-13T03:48:12.578Z,950.25
2018-05-13T03:49:12.589Z,950.27
2018-05-13T03:50:12.592Z,950.25
2018-05-13T03:51:12.605Z,950.24
2018-05-13T03:52:12.616Z,950.24
2018-05-13T03:53:12.632Z,950.26
2018-05-13T03:54:12.644Z,950.27
2018-05-13T03:55:12.645Z,950.24
2018-05-13T03:56:12.663Z,950.28
2018-05-13T03:57:12.671Z,950.30
2018-05-13T03:58:12.679Z,950.28
2018-05-13T03:59:12.694Z,950.31
2018-05-13T04:00:12.701Z,950.29
2018-05-13T04:01:12.721Z,950.30
2018-05-13T04:02:12.724Z,950.30
2018-05-13T04:03:12.735Z,950.30
2018-05-13T04:04:12.745Z,950.26
2018-05-13T04:05:12.759Z,950.35
2018-05-13T04:06:12.767Z,950.34
2018-05-13T04:07:12.783Z,950.36
2018-05-13T04:08:12.790Z,950.36
2018-05-13T04:09:12.798Z,950.34
2018-05-13T04:10:12.811Z,950.40
2018-05-13T04:11:12.822Z,950.38
2018-05-13T04:12:12.829Z,950.41
2018-05-13T04:13:12.849Z,950.41
2018-05-13T04:14:12.859Z,950.43
2018-05-13T04:15:12.864Z,950.45
2018-05-13T04:16:12.875Z,950.51
2018-05-13T04:17:12.885Z,950.52
2018-05-13T04:18:12.895Z,950.53
2018-05-13T04:19:12.911Z,950.57
2018-05-13T04:20:12.919Z,950.58
2018-05-13T04:21:12.932Z,950.60
2018-05-13T04:22:12.940Z,950.61
2018-05-13T04:23:12.950Z,950.60
2018-05-13T04:24:12.968Z,950.62
2018-05-13T04:25:12.973Z,950.63
2018-05-13T04:26:12.989Z,950.62
2018-05-13T04:27:13.000Z,950.62
2018-05-13T04:28:13.009Z,950.63
2018-05-13T04:29:13.015Z,950.61
2018-05-13T04:30:13.035Z,950.57
2018-05-13T04:31:13.042Z,950.56
2018-05-13T04:32:13.048Z,950.58
2018-05-13T04:33:13.065Z,950.60
2018-05-13T04:34:13.077Z,950.58
2018-05-13T04:35:13.090Z,950.61
2018-05-13T04:36:13.102Z,950.63
2018-05-13T04:37:13.110Z,950.64
2018-05-13T04:38:13.120Z,950.68
2018-05-13T04:39:13.147Z,950.65
2018-05-13T04:40:13.139Z,950.65
2018-05-13T04:41:13.152Z,950.65
2018-05-13T04:42:13.164Z,950.65
2018-05-13T04:43:13.169Z,950.64
2018-05-13T04:44:13.188Z,950.66
2018-05-13T04:45:13.193Z,950.66
2018-05-13T04:46:13.212Z,950.64
2018-05-13T04:47:13.221Z,950.66
2018-05-13T04:48:13.227Z,950.70
2018-05-13T04:49:13.251Z,950.70
2018-05-13T04:50:13.253Z,950.72
2018-05-13T04:51:13.260Z,950.71
2018-05-13T04:52:13.287Z,950.76
2018-05-13T04:53:13.295Z,950.71
2018-05-13T04:54:13.302Z,950.72
2018-05-13T04:55:13.306Z,950.72
2018-05-13T04:56:13.321Z,950.71
2018-05-13T04:57:13.331Z,950.66
2018-05-13T04:58:13.347Z,950.71
2018-05-13T04:59:13.353Z,950.70
2018-05-13T05:00:13.364Z,950.71
2018-05-13T05:01:13.375Z,950.73
2018-05-13T05:02:13.390Z,950.76
2018-05-13T05:03:13.399Z,950.76
2018-05-13T05:04:13.421Z,950.78
2018-05-13T05:05:13.424Z,950.76
2018-05-13T05:06:13.430Z,950.79
2018-05-13T05:07:13.451Z,950.79
2018-05-13T05:08:13.457Z,950.78
2018-05-13T05:09:13.486Z,950.76
2018-05-13T05:10:13.478Z,950.76
2018-05-13T05:11:13.506Z,950.75
2018-05-13T05:12:13.502Z,950.78
2018-05-13T05:13:13.509Z,950.79
2018-05-13T05:14:13.539Z,950.77
2018-05-13T05:15:13.532Z,950.78
2018-05-13T05:16:13.558Z,950.75
2018-05-13T05:17:13.562Z,950.76
2018-05-13T05:18:13.575Z,950.79
2018-05-13T05:19:13.579Z,950.78
2018-05-13T05:20:13.594Z,950.80
2018-05-13T05:21:13.603Z,950.78
2018-05-13T05:22:13.618Z,950.81
2018-05-13T05:23:13.635Z,950.82
2018-05-13T05:24:13.645Z,950.78
2018-05-13T05:25:13.653Z,950.79
2018-05-13T05:26:13.661Z,950.83
2018-05-13T05:27:13.674Z,950.79
2018-05-13T05:28:13.687Z,950.82
2018-05-13T05:29:13.708Z,950.79
2018-05-13T05:30:13.712Z,950.81
2018-05-13T05:31:13.721Z,950.85
2018-05-13T05:32:13.731Z,950.89
2018-05-13T05:33:13.743Z,950.86
2018-05-13T05:34:13.808Z,950.89
2018-05-13T05:35:13.762Z,950.92
2018-05-13T05:36:13.784Z,950.92
2018-05-13T05:37:13.798Z,950.88
2018-05-13T05:38:13.797Z,950.91
2018-05-13T05:39:13.808Z,950.83
2018-05-13T05:40:13.825Z,950.84
2018-05-13T05:41:13.840Z,950.85
2018-05-13T05:42:14.835Z,950.86
2018-05-13T05:43:13.861Z,950.89
2018-05-13T05:44:13.864Z,950.87
2018-05-13T05:45:13.880Z,950.88
2018-05-13T05:46:13.890Z,950.88
2018-05-13T05:47:13.904Z,950.91
2018-05-13T05:48:13.918Z,950.89
2018-05-13T05:49:13.932Z,950.89
2018-05-13T05:50:13.936Z,950.88
2018-05-13T05:51:13.948Z,950.87
2018-05-13T05:52:13.960Z,950.83
2018-05-13T05:53:13.973Z,950.85
2018-05-13T05:54:13.981Z,950.82
2018-05-13T05:55:13.995Z,950.82
2018-05-13T05:56:14.004Z,950.85
2018-05-13T05:57:14.015Z,950.85
2018-05-13T05:58:14.029Z,950.84
2018-05-13T05:59:14.038Z,950.87
2018-05-13T06:00:14.048Z,950.85
2018-05-13T06:01:14.068Z,950.85
2018-05-13T06:02:14.072Z,950.86
2018-05-13T06:03:14.167Z,950.88
2018-05-13T06:04:14.096Z,950.89
2018-05-13T06:05:14.110Z,950.92
2018-05-13T06:06:14.119Z,950.94
2018-05-13T06:07:14.143Z,950.93
2018-05-13T06:08:14.150Z,950.98
2018-05-13T06:09:14.155Z,951.00
2018-05-13T06:10:14.168Z,950.95
2018-05-13T06:11:14.180Z,950.97
2018-05-13T06:12:14.293Z,950.98
2018-05-13T06:13:14.211Z,951.00
2018-05-13T06:14:14.218Z,951.03
2018-05-13T06:15:14.225Z,950.99
2018-05-13T06:16:14.236Z,950.95
2018-05-13T06:17:14.253Z,951.03
2018-05-13T06:18:14.260Z,950.98
2018-05-13T06:19:14.278Z,950.97
2018-05-13T06:20:14.289Z,950.99
2018-05-13T06:21:14.306Z,950.94
2018-05-13T06:22:14.307Z,950.95
2018-05-13T06:23:14.322Z,950.95
2018-05-13T06:24:14.331Z,950.94
2018-05-13T06:25:14.449Z,950.98
2018-05-13T06:26:14.356Z,950.96
2018-05-13T06:27:14.368Z,950.97
2018-05-13T06:28:14.383Z,950.98
2018-05-13T06:29:14.390Z,950.98
2018-05-13T06:30:14.403Z,950.95
2018-05-13T06:31:14.424Z,950.95
2018-05-13T06:32:14.431Z,950.93
2018-05-13T06:33:14.443Z,950.90
2018-05-13T06:34:14.467Z,950.94
2018-05-13T06:35:14.464Z,950.89
2018-05-13T06:36:14.477Z,950.98
2018-05-13T06:37:14.497Z,950.90
2018-05-13T06:38:14.500Z,950.94
2018-05-13T06:39:14.513Z,950.92
2018-05-13T06:40:14.528Z,950.89
2018-05-13T06:41:14.539Z,950.86
2018-05-13T06:42:14.549Z,950.85
2018-05-13T06:43:14.563Z,950.88
2018-05-13T06:44:14.582Z,950.78
2018-05-13T06:45:14.587Z,950.76
2018-05-13T06:46:14.597Z,950.74
2018-05-13T06:47:14.612Z,950.71
2018-05-13T06:48:14.624Z,950.68
2018-05-13T06:49:14.634Z,950.60
2018-05-13T06:50:14.648Z,950.63
2018-05-13T06:51:14.775Z,950.61
2018-05-13T06:52:14.670Z,950.58
2018-05-13T06:53:14.683Z,950.57
2018-05-13T06:54:14.692Z,950.59
2018-05-13T06:55:14.706Z,950.60
2018-05-13T06:56:14.720Z,950.55
2018-05-13T06:57:14.828Z,950.58
2018-05-13T06:58:14.745Z,950.53
2018-05-13T06:59:14.755Z,950.55
2018-05-13T07:00:14.763Z,950.55
2018-05-13T07:01:14.780Z,950.56
2018-05-13T07:02:14.790Z,950.61
2018-05-13T07:03:14.802Z,950.54
2018-05-13T07:04:14.821Z,950.57
2018-05-13T07:05:14.827Z,950.56
2018-05-13T07:06:14.837Z,950.57
2018-05-13T07:07:14.852Z,950.62
2018-05-13T07:08:14.862Z,950.56
2018-05-13T07:09:14.875Z,950.64
2018-05-13T07:10:14.974Z,950.65
2018-05-13T07:11:14.898Z,950.65
2018-05-13T07:12:14.909Z,950.69
2018-05-13T07:13:14.924Z,950.68
2018-05-13T07:14:14.934Z,950.67
2018-05-13T07:15:14.947Z,950.70
2018-05-13T07:16:14.965Z,950.68
2018-05-13T07:17:14.979Z,950.67
2018-05-13T07:18:14.989Z,950.65
2018-05-13T07:19:14.996Z,950.66
2018-05-13T07:20:15.011Z,950.65
2018-05-13T07:21:15.023Z,950.66
2018-05-13T07:22:15.043Z,950.64
2018-05-13T07:23:15.044Z,950.61
2018-05-13T07:24:15.057Z,950.61
2018-05-13T07:25:15.067Z,950.67
2018-05-13T07:26:15.082Z,950.70
2018-05-13T07:27:15.093Z,950.75
2018-05-13T07:28:15.117Z,950.81
2018-05-13T07:29:15.137Z,950.77
2018-05-13T07:30:15.129Z,950.73
2018-05-13T07:31:15.143Z,950.70
2018-05-13T07:32:15.155Z,950.68
2018-05-13T07:33:15.169Z,950.75
2018-05-13T07:34:15.189Z,950.83
2018-05-13T07:35:15.194Z,950.85
2018-05-13T07:36:15.205Z,950.82
2018-05-13T07:37:15.218Z,950.83
2018-05-13T07:38:15.230Z,950.83
2018-05-13T07:39:15.244Z,950.82
2018-05-13T07:40:15.257Z,950.75
2018-05-13T07:41:15.314Z,950.81
2018-05-13T07:42:15.281Z,950.84
2018-05-13T07:43:15.308Z,950.81
2018-05-13T07:44:15.305Z,950.84
2018-05-13T07:45:15.324Z,950.86
2018-05-13T07:46:15.333Z,950.89
2018-05-13T07:47:15.348Z,950.88
2018-05-13T07:48:15.358Z,950.83
2018-05-13T07:49:15.376Z,950.82
2018-05-13T07:50:15.382Z,950.79
2018-05-13T07:51:15.396Z,950.81
2018-05-13T07:52:15.409Z,950.74
2018-05-13T07:53:15.423Z,950.79
2018-05-13T07:54:15.435Z,950.78
2018-05-13T07:55:15.462Z,950.83
2018-05-13T07:56:15.462Z,950.78
2018-05-13T07:57:15.480Z,950.78
2018-05-13T07:58:15.503Z,950.74
2018-05-13T07:59:15.506Z,950.73
2018-05-13T08:00:15.520Z,950.74
2018-05-13T08:01:15.530Z,950.77
2018-05-13T08:02:15.540Z,950.83
2018-05-13T08:03:15.553Z,950.87
2018-05-13T08:04:15.568Z,950.85
2018-05-13T08:05:15.580Z,950.80
2018-05-13T08:06:15.667Z,950.83
2018-05-13T08:07:15.613Z,950.85
2018-05-13T08:08:15.620Z,950.84
2018-05-13T08:09:15.632Z,950.78
2018-05-13T08:10:15.648Z,950.72
2018-05-13T08:11:15.659Z,950.68
2018-05-13T08:12:15.674Z,950.66
2018-05-13T08:13:15.685Z,950.72
2018-05-13T08:14:15.700Z,950.81
2018-05-13T08:15:15.725Z,950.86
2018-05-13T08:16:15.728Z,950.90
2018-05-13T08:17:15.758Z,950.85
2018-05-13T08:18:15.751Z,950.87
2018-05-13T08:19:15.764Z,950.85
2018-05-13T08:20:15.788Z,950.82
2018-05-13T08:21:15.798Z,950.78
2018-05-13T08:22:15.804Z,950.77
2018-05-13T08:23:15.819Z,950.77
2018-05-13T08:24:15.833Z,950.74
2018-05-13T08:25:15.848Z,950.76
2018-05-13T08:26:15.859Z,950.73
2018-05-13T08:27:15.887Z,950.78
2018-05-13T08:28:15.887Z,950.79
2018-05-13T08:29:15.901Z,950.80
2018-05-13T08:30:15.911Z,950.82
2018-05-13T08:31:15.936Z,950.80
2018-05-13T08:32:15.943Z,950.80
2018-05-13T08:33:15.962Z,950.75
2018-05-13T08:34:15.967Z,950.73
2018-05-13T08:35:15.983Z,950.73
2018-05-13T08:36:15.996Z,950.69
2018-05-13T08:37:16.010Z,950.72
2018-05-13T08:38:16.023Z,950.72
2018-05-13T08:39:16.044Z,950.73
2018-05-13T08:40:16.051Z,950.67
2018-05-13T08:41:16.064Z,950.62
2018-05-13T08:42:16.080Z,950.61
2018-05-13T08:43:16.093Z,950.66
2018-05-13T08:44:16.108Z,950.71
2018-05-13T08:45:16.141Z,950.71
2018-05-13T08:46:16.136Z,950.67
2018-05-13T08:47:16.153Z,950.64
2018-05-13T08:48:16.162Z,950.63
2018-05-13T08:49:16.180Z,950.65
2018-05-13T08:50:16.190Z,950.66
2018-05-13T08:51:16.205Z,950.65
2018-05-13T08:52:16.236Z,950.67
2018-05-13T08:53:16.238Z,950.67
2018-05-13T08:54:16.246Z,950.67
2018-05-13T08:55:16.262Z,950.73
2018-05-13T08:56:16.276Z,950.67
2018-05-13T08:57:16.295Z,950.70
2018-05-13T08:58:16.310Z,950.69
2018-05-13T08:59:16.319Z,950.74
2018-05-13T09:00:16.332Z,950.77
2018-05-13T09:01:16.349Z,950.79
2018-05-13T09:02:16.364Z,950.74
2018-05-13T09:03:16.376Z,950.72
2018-05-13T09:04:16.393Z,950.74
2018-05-13T09:05:16.402Z,950.75
2018-05-13T09:06:16.416Z,950.72
2018-05-13T09:07:16.509Z,950.74
2018-05-13T09:08:16.444Z,950.74
2018-05-13T09:09:16.459Z,950.72
2018-05-13T09:10:16.472Z,950.72
2018-05-13T09:11:16.510Z,950.68
2018-05-13T09:12:16.502Z,950.67
2018-05-13T09:13:16.519Z,950.64
2018-05-13T09:14:16.567Z,950.61
2018-05-13T09:15:16.543Z,950.60
2018-05-13T09:16:16.560Z,950.63
2018-05-13T09:17:16.581Z,950.64
2018-05-13T09:18:16.588Z,950.61
2018-05-13T09:19:16.601Z,950.60
2018-05-13T09:20:16.614Z,950.59
2018-05-13T09:21:16.633Z,950.61
2018-05-13T09:22:16.648Z,950.60
2018-05-13T09:23:16.659Z,950.60
2018-05-13T09:24:16.675Z,950.59
2018-05-13T09:25:16.689Z,950.59
2018-05-13T09:26:16.717Z,950.53
2018-05-13T09:27:16.722Z,950.51
2018-05-13T09:28:16.736Z,950.48
2018-05-13T09:29:16.747Z,950.44
2018-05-13T09:30:16.764Z,950.43
2018-05-13T09:31:16.780Z,950.41
2018-05-13T09:32:16.791Z,950.38
2018-05-13T09:33:16.809Z,950.43
2018-05-13T09:34:16.818Z,950.47
2018-05-13T09:35:16.850Z,950.50
2018-05-13T09:36:16.852Z,950.53
2018-05-13T09:37:16.861Z,950.55
2018-05-13T09:38:16.878Z,950.53
2018-05-13T09:39:16.897Z,950.45
2018-05-13T09:40:16.911Z,950.42
2018-05-13T09:41:16.920Z,950.44
2018-05-13T09:42:16.935Z,950.44
2018-05-13T09:43:16.953Z,950.47
2018-05-13T09:44:16.973Z,950.44
2018-05-13T09:45:16.980Z,950.47
2018-05-13T09:46:16.993Z,950.42
2018-05-13T09:47:17.008Z,950.46
2018-05-13T09:48:17.027Z,950.50
2018-05-13T09:49:17.040Z,950.49
2018-05-13T09:50:17.052Z,950.49
2018-05-13T09:51:17.142Z,950.53
2018-05-13T09:52:17.088Z,950.54
2018-05-13T09:53:17.100Z,950.51
2018-05-13T09:54:17.110Z,950.48
2018-05-13T09:55:17.128Z,950.45
2018-05-13T09:56:17.150Z,950.42
2018-05-13T09:57:17.154Z,950.49
2018-05-13T09:58:17.182Z,950.47
2018-05-13T09:59:17.185Z,950.47
2018-05-13T10:00:17.203Z,950.48
2018-05-13T10:01:17.232Z,950.51
2018-05-13T10:02:17.235Z,950.46
2018-05-13T10:03:17.244Z,950.45
2018-05-13T10:04:17.266Z,950.44
2018-05-13T10:05:17.275Z,950.39
2018-05-13T10:06:17.293Z,950.42
2018-05-13T10:07:17.305Z,950.37
2018-05-13T10:08:17.327Z,950.34
2018-05-13T10:09:17.364Z,950.36
2018-05-13T10:10:17.352Z,950.29
2018-05-13T10:11:17.374Z,950.29
2018-05-13T10:12:17.384Z,950.25
2018-05-13T10:13:17.399Z,950.30
2018-05-13T10:14:17.418Z,950.33
2018-05-13T10:15:17.430Z,950.30
2018-05-13T10:16:18.013Z,950.34
2018-05-13T10:17:17.470Z,950.35
2018-05-13T10:18:17.474Z,950.31
2018-05-13T10:19:17.491Z,950.37
2018-05-13T10:20:17.505Z,950.39
2018-05-13T10:21:17.529Z,950.41
2018-05-13T10:22:17.544Z,950.38
2018-05-13T10:23:17.560Z,950.38
2018-05-13T10:24:17.568Z,950.37
2018-05-13T10:25:17.597Z,950.34
2018-05-13T10:26:17.598Z,950.32
2018-05-13T10:27:17.692Z,950.32
2018-05-13T10:28:17.630Z,950.33
2018-05-13T10:29:17.645Z,950.32
2018-05-13T10:30:17.658Z,950.29
2018-05-13T10:31:17.677Z,950.31
2018-05-13T10:32:17.691Z,950.33
2018-05-13T10:33:17.731Z,950.30
2018-05-13T10:34:17.722Z,950.26
2018-05-13T10:35:17.738Z,950.26
2018-05-13T10:36:17.848Z,950.25
2018-05-13T10:37:17.772Z,950.26
2018-05-13T10:38:17.784Z,950.27
2018-05-13T10:39:17.801Z,950.27
2018-05-13T10:40:17.816Z,950.31
2018-05-13T10:41:17.832Z,950.23
2018-05-13T10:42:17.852Z,950.20
2018-05-13T10:43:17.866Z,950.10
2018-05-13T10:44:17.885Z,950.08
2018-05-13T10:45:17.894Z,950.10
2018-05-13T10:46:17.908Z,950.08
2018-05-13T10:47:17.933Z,950.15
2018-05-13T10:48:17.938Z,950.20
2018-05-13T10:49:17.966Z,950.25
2018-05-13T10:50:18.350Z,950.35
2018-05-13T10:51:17.985Z,950.38
2018-05-13T10:52:18.007Z,950.43
2018-05-13T10:53:18.079Z,950.39
2018-05-13T10:54:18.037Z,950.34
2018-05-13T10:55:18.049Z,950.36
2018-05-13T10:56:18.064Z,950.32
2018-05-13T10:57:18.085Z,950.28
2018-05-13T10:58:18.094Z,950.23
2018-05-13T10:59:18.110Z,950.20
2018-05-13T11:00:18.130Z,950.22
2018-05-13T11:01:18.141Z,950.27
2018-05-13T11:02:18.164Z,950.31
2018-05-13T11:03:18.172Z,950.34
2018-05-13T11:04:18.194Z,950.41
2018-05-13T11:05:18.209Z,950.38
2018-05-13T11:06:18.261Z,950.40
2018-05-13T11:07:18.243Z,950.34
2018-05-13T11:08:18.259Z,950.33
2018-05-13T11:09:18.268Z,950.38
2018-05-13T11:10:18.335Z,950.48
2018-05-13T11:11:18.301Z,950.45
2018-05-13T11:12:18.322Z,950.42
2018-05-13T11:13:18.336Z,950.25
2018-05-13T11:14:18.354Z,950.02
2018-05-13T11:15:18.365Z,949.89
2018-05-13T11:16:18.382Z,949.82
2018-05-13T11:17:18.398Z,949.84
2018-05-13T11:18:18.425Z,949.77
2018-05-13T11:19:18.437Z,949.76
2018-05-13T11:20:18.453Z,949.74
2018-05-13T11:21:18.464Z,949.76
2018-05-13T11:22:18.480Z,949.77
2018-05-13T11:23:18.496Z,949.81
2018-05-13T11:24:18.514Z,949.81
2018-05-13T11:25:18.537Z,949.87
2018-05-13T11:26:18.634Z,949.95
2018-05-13T11:27:18.564Z,950.26
2018-05-13T11:28:18.578Z,950.44
2018-05-13T11:29:18.596Z,950.40
2018-05-13T11:30:18.618Z,949.96
2018-05-13T11:31:18.627Z,949.73
2018-05-13T11:32:18.646Z,949.63
2018-05-13T11:33:18.666Z,949.57
2018-05-13T11:34:18.682Z,949.58
2018-05-13T11:35:18.699Z,949.63
2018-05-13T11:36:18.717Z,949.61
2018-05-13T11:37:18.740Z,949.52
2018-05-13T11:38:18.753Z,949.54
2018-05-13T11:39:18.767Z,949.86
2018-05-13T11:40:18.787Z,950.03
2018-05-13T11:41:18.805Z,950.29
2018-05-13T11:42:18.819Z,950.19
2018-05-13T11:43:18.845Z,950.20
2018-05-13T11:44:18.857Z,950.29
2018-05-13T11:45:18.877Z,950.30
2018-05-13T11:46:18.895Z,950.41
2018-05-13T11:47:18.918Z,950.35
2018-05-13T11:48:18.932Z,950.44
2018-05-13T11:49:18.960Z,950.44
2018-05-13T11:50:18.976Z,950.33
2018-05-13T11:51:18.997Z,950.43
2018-05-13T11:52:19.021Z,950.43
2018-05-13T11:53:19.041Z,950.45
2018-05-13T11:54:19.063Z,950.35
2018-05-13T11:55:19.099Z,950.42
2018-05-13T11:56:19.111Z,950.37
2018-05-13T11:57:19.128Z,950.38
2018-05-13T11:58:19.150Z,950.24
2018-05-13T11:59:19.176Z,950.26
2018-05-13T12:00:19.198Z,950.25
2018-05-13T12:01:19.228Z,950.32
2018-05-13T12:02:19.283Z,950.37
2018-05-13T12:03:19.278Z,950.61
2018-05-13T12:04:19.297Z,950.62
2018-05-13T12:05:19.320Z,950.46
2018-05-13T12:06:19.344Z,950.41
2018-05-13T12:07:19.380Z,950.46
2018-05-13T12:08:20.048Z,950.36
2018-05-13T12:09:19.427Z,950.22
2018-05-13T12:10:19.451Z,949.56
2018-05-13T12:11:19.478Z,949.68
2018-05-13T12:12:19.502Z,949.92
2018-05-13T12:13:19.526Z,949.51
2018-05-13T12:14:19.554Z,949.46
2018-05-13T12:15:19.579Z,949.57
2018-05-13T12:16:19.606Z,949.65
2018-05-13T12:17:19.631Z,949.68
2018-05-13T12:18:19.652Z,950.34
2018-05-13T12:19:19.685Z,950.53
2018-05-13T12:20:19.704Z,950.21
2018-05-13T12:21:19.728Z,950.31
2018-05-13T12:22:19.789Z,950.44
2018-05-13T12:23:19.774Z,950.56
2018-05-13T12:24:19.809Z,950.75
2018-05-13T12:25:19.822Z,950.16
2018-05-13T12:26:19.853Z,949.47
2018-05-13T12:27:19.877Z,949.28
2018-05-13T12:28:19.897Z,949.48